createdAt,value
2023-04-16T00:00:14.429Z,582.6
2023-04-16T00:01:16.267Z,582.9
2023-04-16T00:02:18.674Z,582.6
2023-04-16T00:03:21.798Z,582.9
2023-04-16T00:04:24.132Z,583.2
2023-04-16T00:05:26.125Z,583
2023-04-16T00:06:27.986Z,582.9
2023-04-16T00:07:29.819Z,583.3
2023-04-16T00:08:31.875Z,583.2
2023-04-16T00:09:33.732Z,583.3
2023-04-16T00:10:35.681Z,582.9
2023-04-16T00:11:37.645Z,583.2
2023-04-16T00:12:39.483Z,583
2023-04-16T00:13:41.333Z,583.1
2023-04-16T00:14:43.182Z,583.1
2023-04-16T00:15:45.032Z,583
2023-04-16T00:16:47.021Z,583.1
2023-04-16T00:17:49.176Z,582.9
2023-04-16T00:18:51.013Z,583.1
2023-04-16T00:19:52.970Z,583.4
2023-04-16T00:20:54.894Z,583.1
2023-04-16T00:21:56.848Z,583.4
2023-04-16T00:22:58.697Z,583.6
2023-04-16T00:24:00.557Z,583.3
2023-04-16T00:25:02.451Z,583.3
2023-04-16T00:26:04.468Z,583.1
2023-04-16T00:27:06.506Z,583.4
2023-04-16T00:28:11.421Z,582.9
2023-04-16T00:29:13.275Z,583.3
2023-04-16T00:30:15.143Z,583.2
2023-04-16T00:31:17.240Z,583.3
2023-04-16T00:32:19.345Z,583.5
2023-04-16T00:33:21.183Z,583.6
2023-04-16T00:34:23.047Z,583.3
2023-04-16T00:35:25.027Z,583.5
2023-04-16T00:36:26.846Z,583.5
2023-04-16T00:37:28.791Z,583.3
2023-04-16T00:38:30.655Z,583.6
2023-04-16T00:39:32.487Z,583.3
2023-04-16T00:40:34.336Z,583.6
2023-04-16T00:41:36.198Z,583.6
2023-04-16T00:42:38.160Z,583.5
2023-04-16T00:43:39.990Z,583.6
2023-04-16T00:44:41.842Z,583.8
2023-04-16T00:45:43.800Z,583.6
2023-04-16T00:46:45.870Z,583.5
2023-04-16T00:47:47.940Z,583.8
2023-04-16T00:48:49.755Z,583.7
2023-04-16T00:49:51.604Z,583.9
2023-04-16T00:50:53.481Z,583.9
2023-04-16T00:51:55.303Z,584
2023-04-16T00:52:57.166Z,584.1
2023-04-16T00:53:59.106Z,584.2
2023-04-16T00:55:00.966Z,583.7
2023-04-16T00:56:02.812Z,584.1
2023-04-16T00:57:04.656Z,584.4
2023-04-16T00:58:06.520Z,584.2
2023-04-16T00:59:09.806Z,584.4
2023-04-16T01:00:11.843Z,584.6
2023-04-16T01:01:13.830Z,584.4
2023-04-16T01:02:16.107Z,584.2
2023-04-16T01:03:18.813Z,584.2
2023-04-16T01:04:21.409Z,584
2023-04-16T01:05:23.352Z,584.1
2023-04-16T01:06:25.226Z,584.3
2023-04-16T01:07:27.047Z,584
2023-04-16T01:08:28.899Z,584.2
2023-04-16T01:09:30.752Z,584.4
2023-04-16T01:10:32.531Z,584.4
2023-04-16T01:11:34.359Z,584.5
2023-04-16T01:12:36.212Z,584.6
2023-04-16T01:13:38.047Z,584.5
2023-04-16T01:14:39.898Z,584.3
2023-04-16T01:15:41.906Z,584.1
2023-04-16T01:16:43.811Z,584.3
2023-04-16T01:17:45.810Z,584.8
2023-04-16T01:18:47.718Z,584.2
2023-04-16T01:19:49.567Z,584.5
2023-04-16T01:20:51.422Z,584.1
2023-04-16T01:21:53.385Z,584.5
2023-04-16T01:22:55.298Z,584.6
2023-04-16T01:23:57.164Z,584.4
2023-04-16T01:24:59.015Z,584.5
2023-04-16T01:26:00.865Z,584.6
2023-04-16T01:27:02.722Z,584.4
2023-04-16T01:28:04.681Z,584.5
2023-04-16T01:29:07.133Z,584.5
2023-04-16T01:30:09.298Z,584.6
2023-04-16T01:31:11.107Z,584.7
2023-04-16T01:32:12.852Z,584.6
2023-04-16T01:33:14.818Z,585
2023-04-16T01:34:16.695Z,584.8
2023-04-16T01:35:18.652Z,584.9
2023-04-16T01:36:20.594Z,584.8
2023-04-16T01:37:22.484Z,584.9
2023-04-16T01:38:24.498Z,584.9
2023-04-16T01:39:26.291Z,584.9
2023-04-16T01:40:28.006Z,584.5
2023-04-16T01:41:29.966Z,584.7
2023-04-16T01:42:31.701Z,584.6
2023-04-16T01:43:33.547Z,584.5
2023-04-16T01:44:35.301Z,584.5
2023-04-16T01:45:37.147Z,584.6
2023-04-16T01:46:39.254Z,584.6
2023-04-16T01:47:41.384Z,584.9
2023-04-16T01:48:43.214Z,585.2
2023-04-16T01:49:45.056Z,585.1
2023-04-16T01:50:47.016Z,585.1
2023-04-16T01:51:48.869Z,585.2
2023-04-16T01:52:50.729Z,585.3
2023-04-16T01:53:52.577Z,584.9
2023-04-16T01:54:54.410Z,585.3
2023-04-16T01:55:56.201Z,585.2
2023-04-16T01:56:57.947Z,585.3
2023-04-16T01:57:59.579Z,585.3
2023-04-16T01:59:01.792Z,585.4
2023-04-16T02:00:03.766Z,585.2
2023-04-16T02:01:06.017Z,585.2
2023-04-16T02:02:08.288Z,585.3
2023-04-16T02:03:10.898Z,585
2023-04-16T02:04:13.042Z,585.3
2023-04-16T02:05:14.958Z,585.4
2023-04-16T02:06:16.814Z,585.3
2023-04-16T02:07:18.673Z,585.4
2023-04-16T02:08:20.727Z,585.7
2023-04-16T02:09:22.676Z,585.2
2023-04-16T02:10:24.559Z,585.3
2023-04-16T02:11:26.481Z,585.2
2023-04-16T02:12:28.238Z,585.2
2023-04-16T02:13:30.065Z,585.2
2023-04-16T02:14:31.923Z,585.2
2023-04-16T02:15:33.773Z,585.2
2023-04-16T02:16:36.049Z,585.4
2023-04-16T02:17:38.123Z,585.6
2023-04-16T02:18:39.877Z,585.5
2023-04-16T02:19:41.593Z,585.4
2023-04-16T02:20:43.531Z,585.7
2023-04-16T02:21:45.377Z,585.8
2023-04-16T02:22:47.333Z,585.8
2023-04-16T02:23:49.206Z,586.1
2023-04-16T02:24:51.148Z,586.3
2023-04-16T02:25:52.910Z,586.2
2023-04-16T02:26:54.826Z,586.1
2023-04-16T02:27:56.676Z,585.8
2023-04-16T02:28:58.638Z,585.9
2023-04-16T02:30:00.480Z,586.1
2023-04-16T02:31:02.428Z,585.8
2023-04-16T02:32:04.522Z,586.2
2023-04-16T02:33:06.908Z,586
2023-04-16T02:34:09.011Z,585.9
2023-04-16T02:35:10.868Z,585.9
2023-04-16T02:36:12.860Z,586.3
2023-04-16T02:37:14.762Z,586.3
2023-04-16T02:38:16.619Z,586
2023-04-16T02:39:18.813Z,585.9
2023-04-16T02:40:20.614Z,586.3
2023-04-16T02:41:22.466Z,586.1
2023-04-16T02:42:24.323Z,586.2
2023-04-16T02:43:26.166Z,586.2
2023-04-16T02:44:27.923Z,586.6
2023-04-16T02:45:29.762Z,586.6
2023-04-16T02:46:31.717Z,587
2023-04-16T02:47:33.888Z,587.1
2023-04-16T02:48:35.751Z,587.1
2023-04-16T02:49:37.574Z,586.9
2023-04-16T02:50:39.427Z,587
2023-04-16T02:51:41.279Z,587.3
2023-04-16T02:52:43.123Z,587.5
2023-04-16T02:53:45.080Z,587.4
2023-04-16T02:54:46.869Z,587.2
2023-04-16T02:55:48.678Z,587.3
2023-04-16T02:56:50.535Z,587.7
2023-04-16T02:57:52.396Z,587.3
2023-04-16T02:58:54.338Z,587.5
2023-04-16T02:59:56.022Z,587.4
2023-04-16T03:00:58.047Z,587.2
2023-04-16T03:02:00.230Z,587.3
2023-04-16T03:03:02.363Z,587.4
2023-04-16T03:04:04.311Z,587.3
2023-04-16T03:05:06.149Z,587.6
2023-04-16T03:06:08.009Z,587.5
2023-04-16T03:07:09.857Z,587.2
2023-04-16T03:08:11.706Z,587.1
2023-04-16T03:09:13.755Z,587.2
2023-04-16T03:10:15.634Z,587
2023-04-16T03:11:17.669Z,587.2
2023-04-16T03:12:19.517Z,587.2
2023-04-16T03:13:21.364Z,587.3
2023-04-16T03:14:23.308Z,587.4
2023-04-16T03:15:25.055Z,587
2023-04-16T03:16:26.916Z,587.1
2023-04-16T03:17:28.994Z,587.2
2023-04-16T03:18:30.922Z,587
2023-04-16T03:19:32.874Z,587.1
2023-04-16T03:20:34.741Z,587.2
2023-04-16T03:21:36.571Z,586.8
2023-04-16T03:22:38.532Z,586.9
2023-04-16T03:23:40.381Z,586.9
2023-04-16T03:24:42.229Z,587.2
2023-04-16T03:25:44.164Z,587.2
2023-04-16T03:26:46.132Z,587.6
2023-04-16T03:27:47.982Z,587.5
2023-04-16T03:28:49.950Z,587.4
2023-04-16T03:29:51.780Z,587.6
2023-04-16T03:30:53.791Z,587.6
2023-04-16T03:31:55.693Z,587.6
2023-04-16T03:32:57.658Z,587.4
2023-04-16T03:33:59.490Z,587.1
2023-04-16T03:35:01.344Z,587.4
2023-04-16T03:36:03.199Z,587.2
2023-04-16T03:37:05.033Z,587.3
2023-04-16T03:38:06.678Z,587.6
2023-04-16T03:39:09.749Z,587.3
2023-04-16T03:40:11.719Z,587.6
2023-04-16T03:41:13.586Z,587.3
2023-04-16T03:42:15.513Z,587.3
2023-04-16T03:43:17.364Z,587.1
2023-04-16T03:44:19.224Z,587.3
2023-04-16T03:45:21.073Z,587.2
2023-04-16T03:46:23.157Z,587
2023-04-16T03:47:25.115Z,587
2023-04-16T03:48:26.956Z,587
2023-04-16T03:49:28.781Z,587.3
2023-04-16T03:50:30.942Z,586.9
2023-04-16T03:51:32.897Z,586.9
2023-04-16T03:52:34.733Z,587
2023-04-16T03:53:36.579Z,586.9
2023-04-16T03:54:38.537Z,586.5
2023-04-16T03:55:40.392Z,586.9
2023-04-16T03:56:42.214Z,586.7
2023-04-16T03:57:44.096Z,586.8
2023-04-16T03:58:45.837Z,586.6
2023-04-16T03:59:47.782Z,586.5
2023-04-16T04:00:49.638Z,586.4
2023-04-16T04:01:51.950Z,586.3
2023-04-16T04:02:54.896Z,586.3
2023-04-16T04:03:58.111Z,586
2023-04-16T04:05:00.563Z,586.2
2023-04-16T04:06:02.481Z,586.2
2023-04-16T04:07:04.246Z,585.9
2023-04-16T04:08:06.177Z,585.6
2023-04-16T04:09:08.875Z,585.7
2023-04-16T04:10:10.999Z,585.8
2023-04-16T04:11:12.844Z,585.3
2023-04-16T04:12:14.727Z,585.5
2023-04-16T04:13:16.647Z,585
2023-04-16T04:14:18.600Z,585.1
2023-04-16T04:15:20.457Z,585
2023-04-16T04:16:22.680Z,584.8
2023-04-16T04:17:24.732Z,585
2023-04-16T04:18:26.619Z,584.7
2023-04-16T04:19:28.493Z,584.9
2023-04-16T04:20:30.432Z,584.8
2023-04-16T04:21:32.174Z,584.7
2023-04-16T04:22:33.916Z,584.5
2023-04-16T04:23:35.877Z,584.6
2023-04-16T04:24:37.723Z,584.6
2023-04-16T04:25:39.470Z,584.4
2023-04-16T04:26:41.329Z,584.5
2023-04-16T04:27:43.194Z,584.2
2023-04-16T04:28:45.030Z,584
2023-04-16T04:29:47.073Z,583.9
2023-04-16T04:30:49.016Z,583.8
2023-04-16T04:31:51.094Z,583.7
2023-04-16T04:32:53.039Z,582.7
2023-04-16T04:33:54.880Z,583.3
2023-04-16T04:34:56.654Z,583.3
2023-04-16T04:35:58.587Z,583.1
2023-04-16T04:37:00.436Z,583
2023-04-16T04:38:03.401Z,583.1
2023-04-16T04:39:05.354Z,583.1
2023-04-16T04:40:07.211Z,583
2023-04-16T04:41:09.155Z,583.1
2023-04-16T04:42:11.006Z,582.9
2023-04-16T04:43:12.897Z,582.8
2023-04-16T04:44:14.718Z,582.6
2023-04-16T04:45:16.560Z,582.6
2023-04-16T04:46:18.815Z,582.3
2023-04-16T04:47:20.888Z,582.3
2023-04-16T04:48:22.725Z,582.3
2023-04-16T04:49:24.547Z,582.3
2023-04-16T04:50:26.437Z,582.1
2023-04-16T04:51:28.206Z,582.1
2023-04-16T04:52:30.030Z,581.8
2023-04-16T04:53:31.882Z,581.8
2023-04-16T04:54:33.728Z,582.2
2023-04-16T04:55:35.570Z,581.9
2023-04-16T04:56:37.336Z,582.2
2023-04-16T04:57:39.185Z,582.1
2023-04-16T04:58:41.159Z,582.5
2023-04-16T04:59:42.980Z,582.3
2023-04-16T05:00:45.057Z,582.4
2023-04-16T05:01:46.980Z,582.3
2023-04-16T05:02:49.424Z,582.7
2023-04-16T05:03:51.839Z,582.7
2023-04-16T05:04:53.889Z,583
2023-04-16T05:05:55.722Z,582.8
2023-04-16T05:06:57.568Z,582.9
2023-04-16T05:07:59.410Z,582.8
2023-04-16T05:09:01.241Z,582.6
2023-04-16T05:10:03.220Z,583
2023-04-16T05:11:05.059Z,583
2023-04-16T05:12:06.915Z,582.5
2023-04-16T05:13:08.864Z,582.6
2023-04-16T05:14:10.745Z,582.5
2023-04-16T05:15:12.683Z,582.7
2023-04-16T05:16:14.669Z,583
2023-04-16T05:17:16.676Z,583.3
2023-04-16T05:18:18.628Z,583.2
2023-04-16T05:19:20.600Z,583.4
2023-04-16T05:20:22.438Z,583
2023-04-16T05:21:24.279Z,583.2
2023-04-16T05:22:26.242Z,583.2
2023-04-16T05:23:28.014Z,583
2023-04-16T05:24:29.830Z,582.8
2023-04-16T05:25:31.682Z,582.8
2023-04-16T05:26:33.645Z,582.8
2023-04-16T05:27:35.591Z,583
2023-04-16T05:28:37.556Z,582.8
2023-04-16T05:29:39.511Z,582.7
2023-04-16T05:30:41.445Z,582.8
2023-04-16T05:31:43.300Z,583.2
2023-04-16T05:32:45.613Z,583.1
2023-04-16T05:33:47.507Z,583.1
2023-04-16T05:34:49.364Z,583.4
2023-04-16T05:35:51.306Z,583.7
2023-04-16T05:36:52.988Z,583.8
2023-04-16T05:37:54.817Z,583.6
2023-04-16T05:38:56.650Z,583.7
2023-04-16T05:39:58.516Z,583.3
2023-04-16T05:41:00.347Z,583.5
2023-04-16T05:42:02.031Z,583.3
2023-04-16T05:43:03.956Z,583.4
2023-04-16T05:44:05.804Z,583.3
2023-04-16T05:45:07.773Z,583.1
2023-04-16T05:46:09.716Z,582.7
2023-04-16T05:47:11.874Z,582.4
2023-04-16T05:48:13.719Z,582.7
2023-04-16T05:49:15.670Z,582.4
2023-04-16T05:50:17.623Z,582.2
2023-04-16T05:51:19.463Z,582.3
2023-04-16T05:52:21.331Z,582.5
2023-04-16T05:53:23.172Z,582.7
2023-04-16T05:54:25.114Z,582.3
2023-04-16T05:55:26.862Z,582.7
2023-04-16T05:56:28.716Z,582.9
2023-04-16T05:57:30.570Z,582.8
2023-04-16T05:58:32.331Z,583
2023-04-16T05:59:34.263Z,583.4
2023-04-16T06:00:36.305Z,583.3
2023-04-16T06:01:38.276Z,583.5
2023-04-16T06:02:40.844Z,583.6
2023-04-16T06:03:43.153Z,583.7
2023-04-16T06:04:44.983Z,583.5
2023-04-16T06:05:47.131Z,583.3
2023-04-16T06:06:48.976Z,583.4
2023-04-16T06:07:50.828Z,583.6
2023-04-16T06:08:52.768Z,583.4
2023-04-16T06:09:54.616Z,583.8
2023-04-16T06:10:56.467Z,583.8
2023-04-16T06:11:58.233Z,584
2023-04-16T06:13:00.172Z,583.9
2023-04-16T06:14:02.131Z,584.2
2023-04-16T06:15:03.974Z,583.8
2023-04-16T06:16:06.167Z,583.7
2023-04-16T06:17:08.084Z,583.8
2023-04-16T06:18:10.275Z,583.6
2023-04-16T06:19:12.704Z,583.5
2023-04-16T06:20:14.552Z,583.5
2023-04-16T06:21:16.452Z,583.4
2023-04-16T06:22:18.249Z,583.4
2023-04-16T06:23:20.093Z,583.3
2023-04-16T06:24:21.951Z,583.4
2023-04-16T06:25:23.813Z,583.3
2023-04-16T06:26:25.656Z,583.5
2023-04-16T06:27:27.418Z,583.3
2023-04-16T06:28:29.357Z,583.5
2023-04-16T06:29:42.360Z,583.2
2023-04-16T06:30:45.434Z,583.1
2023-04-16T06:31:47.675Z,583.2
2023-04-16T06:32:49.992Z,583.5
2023-04-16T06:33:51.914Z,583.6
2023-04-16T06:34:53.767Z,583.5
2023-04-16T06:35:55.535Z,583.9
2023-04-16T06:36:57.358Z,584.1
2023-04-16T06:37:59.242Z,584.2
2023-04-16T06:39:01.072Z,583.8
2023-04-16T06:40:02.960Z,583.9
2023-04-16T06:41:04.863Z,583.6
2023-04-16T06:42:06.829Z,583.5
2023-04-16T06:43:08.686Z,583.5
2023-04-16T06:44:10.679Z,583.3
2023-04-16T06:45:12.476Z,583.3
2023-04-16T06:46:14.626Z,583.3
2023-04-16T06:47:16.709Z,583.5
2023-04-16T06:48:18.723Z,583.4
2023-04-16T06:49:20.576Z,583.2
2023-04-16T06:50:22.359Z,583.3
2023-04-16T06:51:24.172Z,583.3
2023-04-16T06:52:25.952Z,583.3
2023-04-16T06:53:27.777Z,583.4
2023-04-16T06:54:29.741Z,583.4
2023-04-16T06:55:31.574Z,583.4
2023-04-16T06:56:33.439Z,583.6
2023-04-16T06:57:38.142Z,583.8
2023-04-16T06:58:39.946Z,583.7
2023-04-16T06:59:41.749Z,583.9
2023-04-16T07:00:43.817Z,583.6
2023-04-16T07:01:45.763Z,583.6
2023-04-16T07:02:48.202Z,583.8
2023-04-16T07:03:51.303Z,584.1
2023-04-16T07:04:53.254Z,584.3
2023-04-16T07:05:55.125Z,584.1
2023-04-16T07:06:56.952Z,584.4
2023-04-16T07:07:58.810Z,584.5
2023-04-16T07:09:00.744Z,584.3
2023-04-16T07:10:02.713Z,584.2
2023-04-16T07:11:04.656Z,584.2
2023-04-16T07:12:06.514Z,584
2023-04-16T07:13:08.353Z,583.8
2023-04-16T07:14:10.207Z,583.7
2023-04-16T07:15:12.062Z,583.8
2023-04-16T07:16:14.142Z,583.6
2023-04-16T07:17:16.056Z,583.5
2023-04-16T07:18:21.221Z,583.8
2023-04-16T07:19:23.047Z,583.7
2023-04-16T07:20:25.009Z,583.4
2023-04-16T07:21:26.940Z,583.4
2023-04-16T07:22:28.800Z,583.6
2023-04-16T07:23:30.641Z,583.1
2023-04-16T07:24:32.500Z,583.1
2023-04-16T07:25:34.340Z,583
2023-04-16T07:26:36.305Z,583.1
2023-04-16T07:27:38.230Z,583.4
2023-04-16T07:28:40.058Z,583.1
2023-04-16T07:29:41.952Z,583.2
2023-04-16T07:30:43.795Z,583.2
2023-04-16T07:31:45.910Z,583
2023-04-16T07:32:48.137Z,583.2
2023-04-16T07:33:50.094Z,583.3
2023-04-16T07:34:52.016Z,583.1
2023-04-16T07:35:53.877Z,583.1
2023-04-16T07:36:55.822Z,583.4
2023-04-16T07:37:57.772Z,583.8
2023-04-16T07:38:59.623Z,583.4
2023-04-16T07:40:01.599Z,583.6
2023-04-16T07:41:03.321Z,583.8
2023-04-16T07:42:05.179Z,583.9
2023-04-16T07:43:07.121Z,583.9
2023-04-16T07:44:08.989Z,584.2
2023-04-16T07:45:10.826Z,583.9
2023-04-16T07:46:12.918Z,584
2023-04-16T07:47:14.832Z,584.2
2023-04-16T07:48:16.986Z,583.9
2023-04-16T07:49:18.972Z,583.7
2023-04-16T07:50:20.893Z,583.8
2023-04-16T07:51:22.739Z,583.5
2023-04-16T07:52:24.695Z,584
2023-04-16T07:53:26.449Z,583.5
2023-04-16T07:54:29.725Z,583.6
2023-04-16T07:55:31.500Z,583.5
2023-04-16T07:56:33.427Z,584.3
2023-04-16T07:57:35.492Z,583.8
2023-04-16T07:58:37.339Z,584.3
2023-04-16T07:59:39.196Z,584
2023-04-16T08:00:41.149Z,584.3
2023-04-16T08:01:42.997Z,584.1
2023-04-16T08:02:45.972Z,584.3
2023-04-16T08:03:48.808Z,584.2
2023-04-16T08:04:51.436Z,584.3
2023-04-16T08:05:53.464Z,584.4
2023-04-16T08:06:55.405Z,584.1
2023-04-16T08:07:57.346Z,584.4
2023-04-16T08:08:59.313Z,584.6
2023-04-16T08:10:01.184Z,584.7
2023-04-16T08:11:03.020Z,584.9
2023-04-16T08:12:04.874Z,585.2
2023-04-16T08:13:06.839Z,585.2
2023-04-16T08:14:08.778Z,585.9
2023-04-16T08:15:10.735Z,585.8
2023-04-16T08:16:12.694Z,585.8
2023-04-16T08:17:14.523Z,585.8
2023-04-16T08:18:16.372Z,586.1
2023-04-16T08:19:18.230Z,585.7
2023-04-16T08:20:20.309Z,585.7
2023-04-16T08:21:22.128Z,585.7
2023-04-16T08:22:23.937Z,585.9
2023-04-16T08:23:25.831Z,586.1
2023-04-16T08:24:27.696Z,586.3
2023-04-16T08:25:29.630Z,586.4
2023-04-16T08:26:31.500Z,586.3
2023-04-16T08:27:33.343Z,586.4
2023-04-16T08:28:35.191Z,586.7
2023-04-16T08:29:37.148Z,586.7
2023-04-16T08:30:38.986Z,586.3
2023-04-16T08:31:41.188Z,586.3
2023-04-16T08:32:43.329Z,586.7
2023-04-16T08:33:45.162Z,586.5
2023-04-16T08:34:47.005Z,586.6
2023-04-16T08:35:48.789Z,586.7
2023-04-16T08:36:50.604Z,586.7
2023-04-16T08:37:52.456Z,586.7
2023-04-16T08:38:54.405Z,586.6
2023-04-16T08:39:56.267Z,586.6
2023-04-16T08:40:58.056Z,586.5
2023-04-16T08:41:59.861Z,586.7
2023-04-16T08:43:01.774Z,586.7
2023-04-16T08:44:03.551Z,586.8
2023-04-16T08:45:05.339Z,586.9
2023-04-16T08:46:07.592Z,587.4
2023-04-16T08:47:09.931Z,587.3
2023-04-16T08:48:11.858Z,587.4
2023-04-16T08:49:13.799Z,587.6
2023-04-16T08:50:15.679Z,587.7
2023-04-16T08:51:17.559Z,587.7
2023-04-16T08:52:19.384Z,587.9
2023-04-16T08:53:22.054Z,588.1
2023-04-16T08:54:25.543Z,588.1
2023-04-16T08:55:27.496Z,588
2023-04-16T08:56:29.338Z,587.9
2023-04-16T08:57:31.180Z,588
2023-04-16T08:58:33.037Z,588
2023-04-16T08:59:34.894Z,588.2
2023-04-16T09:00:36.852Z,588
2023-04-16T09:01:38.932Z,588.1
2023-04-16T09:02:41.994Z,588.3
2023-04-16T09:03:44.808Z,588.2
2023-04-16T09:04:47.060Z,587.9
2023-04-16T09:05:49.063Z,588.3
2023-04-16T09:06:50.933Z,588.5
2023-04-16T09:07:52.750Z,589
2023-04-16T09:08:54.610Z,589.1
2023-04-16T09:09:56.462Z,589.1
2023-04-16T09:10:58.312Z,589.5
2023-04-16T09:12:00.153Z,589.5
2023-04-16T09:13:02.104Z,589.5
2023-04-16T09:14:03.884Z,589.6
2023-04-16T09:15:05.722Z,589.7
2023-04-16T09:16:07.731Z,589.9
2023-04-16T09:17:09.621Z,589.3
2023-04-16T09:18:11.677Z,589.5
2023-04-16T09:19:13.525Z,589.7
2023-04-16T09:20:15.378Z,589.4
2023-04-16T09:21:17.314Z,589.3
2023-04-16T09:22:19.187Z,589.5
2023-04-16T09:23:21.128Z,589.3
2023-04-16T09:24:22.967Z,589.6
2023-04-16T09:25:24.715Z,589.7
2023-04-16T09:26:26.668Z,589.7
2023-04-16T09:27:28.545Z,589.4
2023-04-16T09:28:30.480Z,589.5
2023-04-16T09:29:32.334Z,589.9
2023-04-16T09:30:34.171Z,589.7
2023-04-16T09:31:36.161Z,589.7
2023-04-16T09:32:38.102Z,589.9
2023-04-16T09:33:39.939Z,590.1
2023-04-16T09:34:41.775Z,589.6
2023-04-16T09:35:43.665Z,589.6
2023-04-16T09:36:45.475Z,589.7
2023-04-16T09:37:47.356Z,589.8
2023-04-16T09:38:49.289Z,590.1
2023-04-16T09:39:51.129Z,590
2023-04-16T09:40:52.990Z,590.4
2023-04-16T09:41:54.949Z,590.6
2023-04-16T09:42:56.969Z,590.6
2023-04-16T09:43:58.841Z,590.9
2023-04-16T09:45:06.650Z,590.9
2023-04-16T09:46:09.544Z,591
2023-04-16T09:47:11.461Z,591.5
2023-04-16T09:48:13.304Z,591.5
2023-04-16T09:49:15.257Z,591.5
2023-04-16T09:50:19.462Z,591.3
2023-04-16T09:51:21.328Z,591.5
2023-04-16T09:52:23.172Z,591
2023-04-16T09:53:25.043Z,591.4
2023-04-16T09:54:26.791Z,591.3
2023-04-16T09:55:28.508Z,591.3
2023-04-16T09:56:30.456Z,591.6
2023-04-16T09:57:32.219Z,591.8
2023-04-16T09:58:34.169Z,591.9
2023-04-16T09:59:36.022Z,591.7
2023-04-16T10:00:44.298Z,592
2023-04-16T10:01:46.540Z,592
2023-04-16T10:02:51.545Z,592.1
2023-04-16T10:03:54.459Z,592.3
2023-04-16T10:04:56.832Z,592.4
2023-04-16T10:05:58.716Z,592.2
2023-04-16T10:07:00.530Z,592.2
2023-04-16T10:08:02.510Z,592.5
2023-04-16T10:09:04.538Z,592.3
2023-04-16T10:10:06.340Z,592.4
2023-04-16T10:11:08.042Z,592.4
2023-04-16T10:12:09.893Z,592.3
2023-04-16T10:13:11.841Z,592.5
2023-04-16T10:14:13.588Z,592.6
2023-04-16T10:15:15.435Z,592.7
2023-04-16T10:16:17.397Z,593
2023-04-16T10:17:19.254Z,592.9
2023-04-16T10:18:21.510Z,593.1
2023-04-16T10:19:23.450Z,593.3
2023-04-16T10:20:25.303Z,593.5
2023-04-16T10:21:27.157Z,593.1
2023-04-16T10:22:29.010Z,593.5
2023-04-16T10:23:30.858Z,593.8
2023-04-16T10:24:32.825Z,593.9
2023-04-16T10:25:34.756Z,593.8
2023-04-16T10:26:36.620Z,594.2
2023-04-16T10:27:38.469Z,594.2
2023-04-16T10:28:40.318Z,594
2023-04-16T10:29:42.156Z,594.3
2023-04-16T10:30:44.114Z,594.5
2023-04-16T10:31:45.966Z,594.3
2023-04-16T10:32:47.922Z,594.5
2023-04-16T10:33:49.775Z,594.3
2023-04-16T10:34:51.618Z,594.2
2023-04-16T10:36:08.622Z,594.5
2023-04-16T10:37:10.464Z,594.2
2023-04-16T10:38:12.426Z,594.6
2023-04-16T10:39:18.128Z,594.3
2023-04-16T10:40:20.043Z,594.7
2023-04-16T10:41:21.867Z,594.7
2023-04-16T10:42:23.824Z,594.6
2023-04-16T10:43:25.777Z,594.7
2023-04-16T10:44:27.431Z,594.6
2023-04-16T10:45:29.268Z,594.5
2023-04-16T10:46:31.344Z,594.9
2023-04-16T10:47:33.518Z,594.7
2023-04-16T10:48:51.293Z,595
2023-04-16T10:49:53.154Z,594.9
2023-04-16T10:50:55.004Z,594.8
2023-04-16T10:51:56.845Z,594.6
2023-04-16T10:52:58.703Z,594.7
2023-04-16T10:54:00.666Z,595.2
2023-04-16T10:55:02.600Z,595.1
2023-04-16T10:56:04.484Z,595.2
2023-04-16T10:57:06.423Z,595.2
2023-04-16T10:58:08.353Z,595.2
2023-04-16T10:59:11.509Z,595.6
2023-04-16T11:00:13.591Z,595.3
2023-04-16T11:01:15.557Z,595.2
2023-04-16T11:02:18.721Z,595.3
2023-04-16T11:03:21.660Z,595.1
2023-04-16T11:04:24.359Z,595.3
2023-04-16T11:05:26.328Z,595.6
2023-04-16T11:06:28.356Z,595.9
2023-04-16T11:07:30.233Z,596
2023-04-16T11:08:32.589Z,596.4
2023-04-16T11:09:34.549Z,596.1
2023-04-16T11:10:36.491Z,596.2
2023-04-16T11:11:38.374Z,596.3
2023-04-16T11:12:40.201Z,596.3
2023-04-16T11:13:44.091Z,596.6
2023-04-16T11:14:45.950Z,596.3
2023-04-16T11:15:47.824Z,596.4
2023-04-16T11:16:49.846Z,596.6
2023-04-16T11:17:52.376Z,596.8
2023-04-16T11:18:57.538Z,596.5
2023-04-16T11:19:59.386Z,596.7
2023-04-16T11:21:01.352Z,596.6
2023-04-16T11:22:03.301Z,596.4
2023-04-16T11:23:05.142Z,596.5
2023-04-16T11:24:07.000Z,596.6
2023-04-16T11:25:08.958Z,596.8
2023-04-16T11:26:10.696Z,597.2
2023-04-16T11:27:12.583Z,597.2
2023-04-16T11:28:14.500Z,597.5
2023-04-16T11:29:16.369Z,597.6
2023-04-16T11:30:18.197Z,597.7
2023-04-16T11:31:20.396Z,597.8
2023-04-16T11:32:22.553Z,597.9
2023-04-16T11:33:24.462Z,598.3
2023-04-16T11:34:26.330Z,598.4
2023-04-16T11:35:28.267Z,598.4
2023-04-16T11:36:30.216Z,598.5
2023-04-16T11:37:32.066Z,598.8
2023-04-16T11:38:33.926Z,598.8
2023-04-16T11:39:35.767Z,598.9
2023-04-16T11:40:37.723Z,599.1
2023-04-16T11:41:39.567Z,599.5
2023-04-16T11:42:41.928Z,599.2
2023-04-16T11:43:43.789Z,599.3
2023-04-16T11:44:45.640Z,599.5
2023-04-16T11:45:47.582Z,599.7
2023-04-16T11:46:49.974Z,599.6
2023-04-16T11:47:52.548Z,599.9
2023-04-16T11:48:54.472Z,600.1
2023-04-16T11:49:56.317Z,600.1
2023-04-16T11:50:58.280Z,600.3
2023-04-16T11:52:00.234Z,600.3
2023-04-16T11:53:02.071Z,600.6
2023-04-16T11:54:03.929Z,600.7
2023-04-16T11:55:05.678Z,600.8
2023-04-16T11:56:07.534Z,600.6
2023-04-16T11:57:09.480Z,600.8
2023-04-16T11:58:11.457Z,600.8
2023-04-16T11:59:15.304Z,600.8
2023-04-16T12:00:17.384Z,601.1
2023-04-16T12:01:19.227Z,601
2023-04-16T12:02:21.692Z,601.4
2023-04-16T12:03:24.474Z,601.6
2023-04-16T12:04:27.288Z,602.1
2023-04-16T12:05:29.084Z,601.9
2023-04-16T12:06:30.869Z,602.1
2023-04-16T12:07:32.793Z,602
2023-04-16T12:08:34.639Z,602.8
2023-04-16T12:09:41.423Z,602.4
2023-04-16T12:10:43.261Z,602.6
2023-04-16T12:11:45.108Z,602.7
2023-04-16T12:12:47.058Z,602.7
2023-04-16T12:13:48.924Z,602.8
2023-04-16T12:14:50.758Z,603
2023-04-16T12:15:52.526Z,603.3
2023-04-16T12:16:54.683Z,603
2023-04-16T12:17:56.758Z,603.4
2023-04-16T12:18:58.574Z,603.5
2023-04-16T12:20:00.433Z,604
2023-04-16T12:21:02.350Z,604
2023-04-16T12:22:04.245Z,604.3
2023-04-16T12:23:06.083Z,603.7
2023-04-16T12:24:07.915Z,604
2023-04-16T12:25:09.877Z,604
2023-04-16T12:26:11.731Z,604.3
2023-04-16T12:27:13.471Z,604.1
2023-04-16T12:28:15.315Z,604.5
2023-04-16T12:29:17.188Z,604.8
2023-04-16T12:30:19.128Z,604.5
2023-04-16T12:31:21.442Z,604.7
2023-04-16T12:32:23.591Z,604.8
2023-04-16T12:33:25.486Z,604.6
2023-04-16T12:34:50.173Z,604.9
2023-04-16T12:35:52.136Z,605.2
2023-04-16T12:36:53.981Z,605
2023-04-16T12:37:55.928Z,605.2
2023-04-16T12:38:57.880Z,604.9
2023-04-16T12:39:59.843Z,605
2023-04-16T12:41:01.683Z,605.2
2023-04-16T12:42:04.149Z,605.3
2023-04-16T12:43:06.032Z,604.9
2023-04-16T12:44:07.862Z,605
2023-04-16T12:45:09.731Z,605.2
2023-04-16T12:46:11.896Z,605.1
2023-04-16T12:47:13.818Z,605.2
2023-04-16T12:48:15.771Z,605.3
2023-04-16T12:49:17.476Z,605.5
2023-04-16T12:50:19.257Z,605.2
2023-04-16T12:51:21.116Z,605.1
2023-04-16T12:52:24.404Z,605.5
2023-04-16T12:53:26.245Z,605.7
2023-04-16T12:54:28.099Z,605.9
2023-04-16T12:55:29.940Z,605.8
2023-04-16T12:56:31.892Z,606
2023-04-16T12:57:33.848Z,606.2
2023-04-16T12:58:35.804Z,606.4
2023-04-16T12:59:37.652Z,606.7
2023-04-16T13:00:39.522Z,606.7
2023-04-16T13:01:41.568Z,607.1
2023-04-16T13:02:43.979Z,607.3
2023-04-16T13:03:47.288Z,607.5
2023-04-16T13:04:49.789Z,607.7
2023-04-16T13:05:51.724Z,607.8
2023-04-16T13:06:53.512Z,607.5
2023-04-16T13:07:55.324Z,607.6
2023-04-16T13:08:57.178Z,607.8
2023-04-16T13:09:59.015Z,608
2023-04-16T13:11:00.864Z,608
2023-04-16T13:12:02.719Z,608.3
2023-04-16T13:13:04.472Z,608.4
2023-04-16T13:14:06.418Z,608.3
2023-04-16T13:15:08.210Z,608.6
2023-04-16T13:16:10.277Z,608.6
2023-04-16T13:17:12.287Z,608.2
2023-04-16T13:18:14.136Z,608.3
2023-04-16T13:19:15.993Z,608.1
2023-04-16T13:20:17.934Z,608.1
2023-04-16T13:21:19.800Z,608
2023-04-16T13:22:21.625Z,607.8
2023-04-16T13:23:23.493Z,607.9
2023-04-16T13:24:25.336Z,608.2